sensor_id;sensor_type;location;lat;lon;timestamp;P1;durP1;ratioP1;P2;durP2;ratioP2
51985;SDS011;38002;53.296;6.600;2023-07-13T00:01:43;7.93;;;2.77;;
51985;SDS011;38002;53.296;6.600;2023-07-13T00:06:44;6.03;;;2.23;;
51985;SDS011;38002;53.296;6.600;2023-07-13T00:16:50;9.52;;;2.90;;
51985;SDS011;38002;53.296;6.600;2023-07-13T00:21:50;5.33;;;2.00;;
51985;SDS011;38002;53.296;6.600;2023-07-13T00:26:51;13.00;;;2.67;;
51985;SDS011;38002;53.296;6.600;2023-07-13T00:31:51;9.10;;;2.57;;
51985;SDS011;38002;53.296;6.600;2023-07-13T00:36:52;14.80;;;2.97;;
51985;SDS011;38002;53.296;6.600;2023-07-13T00:41:52;9.57;;;3.67;;
51985;SDS011;38002;53.296;6.600;2023-07-13T00:46:53;11.80;;;5.00;;
51985;SDS011;38002;53.296;6.600;2023-07-13T00:51:57;8.73;;;3.13;;
51985;SDS011;38002;53.296;6.600;2023-07-13T00:57:02;10.82;;;2.60;;
51985;SDS011;38002;53.296;6.600;2023-07-13T01:02:04;11.65;;;2.25;;
51985;SDS011;38002;53.296;6.600;2023-07-13T01:07:06;9.33;;;2.77;;
51985;SDS011;38002;53.296;6.600;2023-07-13T01:12:07;8.18;;;2.35;;
51985;SDS011;38002;53.296;6.600;2023-07-13T01:17:08;7.15;;;2.38;;
51985;SDS011;38002;53.296;6.600;2023-07-13T01:22:11;9.65;;;1.90;;
51985;SDS011;38002;53.296;6.600;2023-07-13T01:27:15;12.05;;;2.40;;
51985;SDS011;38002;53.296;6.600;2023-07-13T01:32:18;7.63;;;2.88;;
51985;SDS011;38002;53.296;6.600;2023-07-13T01:37:22;24.55;;;3.40;;
51985;SDS011;38002;53.296;6.600;2023-07-13T01:42:24;5.82;;;2.13;;
51985;SDS011;38002;53.296;6.600;2023-07-13T01:47:24;13.60;;;2.83;;
51985;SDS011;38002;53.296;6.600;2023-07-13T01:52:26;9.07;;;2.92;;
51985;SDS011;38002;53.296;6.600;2023-07-13T01:57:26;7.13;;;2.33;;
51985;SDS011;38002;53.296;6.600;2023-07-13T02:02:27;11.87;;;2.33;;
51985;SDS011;38002;53.296;6.600;2023-07-13T02:07:27;5.90;;;2.10;;
51985;SDS011;38002;53.296;6.600;2023-07-13T02:12:28;7.17;;;2.13;;
51985;SDS011;38002;53.296;6.600;2023-07-13T02:17:28;5.33;;;1.80;;
51985;SDS011;38002;53.296;6.600;2023-07-13T02:22:29;8.00;;;1.97;;
51985;SDS011;38002;53.296;6.600;2023-07-13T02:27:29;3.17;;;1.27;;
51985;SDS011;38002;53.296;6.600;2023-07-13T02:32:29;8.27;;;2.20;;
51985;SDS011;38002;53.296;6.600;2023-07-13T02:37:30;2.00;;;1.10;;
51985;SDS011;38002;53.296;6.600;2023-07-13T02:42:30;5.33;;;1.70;;
51985;SDS011;38002;53.296;6.600;2023-07-13T02:47:31;4.13;;;1.50;;
51985;SDS011;38002;53.296;6.600;2023-07-13T02:52:32;3.47;;;1.60;;
51985;SDS011;38002;53.296;6.600;2023-07-13T02:57:33;11.37;;;1.50;;
51985;SDS011;38002;53.296;6.600;2023-07-13T03:02:34;3.03;;;1.30;;
51985;SDS011;38002;53.296;6.600;2023-07-13T03:07:34;5.77;;;1.90;;
51985;SDS011;38002;53.296;6.600;2023-07-13T03:12:35;7.53;;;1.97;;
51985;SDS011;38002;53.296;6.600;2023-07-13T03:17:35;7.23;;;1.73;;
51985;SDS011;38002;53.296;6.600;2023-07-13T03:22:36;4.50;;;2.13;;
51985;SDS011;38002;53.296;6.600;2023-07-13T03:27:37;5.17;;;2.13;;
51985;SDS011;38002;53.296;6.600;2023-07-13T03:32:38;7.43;;;2.27;;
51985;SDS011;38002;53.296;6.600;2023-07-13T03:37:38;10.20;;;2.60;;
51985;SDS011;38002;53.296;6.600;2023-07-13T03:42:42;7.57;;;2.67;;
51985;SDS011;38002;53.296;6.600;2023-07-13T03:47:43;11.63;;;3.43;;
51985;SDS011;38002;53.296;6.600;2023-07-13T03:52:43;10.13;;;3.17;;
51985;SDS011;38002;53.296;6.600;2023-07-13T03:57:43;7.23;;;2.40;;
51985;SDS011;38002;53.296;6.600;2023-07-13T04:02:44;9.40;;;3.03;;
51985;SDS011;38002;53.296;6.600;2023-07-13T04:07:46;10.60;;;2.38;;
51985;SDS011;38002;53.296;6.600;2023-07-13T04:12:47;6.27;;;2.47;;
51985;SDS011;38002;53.296;6.600;2023-07-13T04:17:47;12.37;;;3.50;;
51985;SDS011;38002;53.296;6.600;2023-07-13T04:22:48;10.37;;;3.27;;
51985;SDS011;38002;53.296;6.600;2023-07-13T04:27:49;13.80;;;3.17;;
51985;SDS011;38002;53.296;6.600;2023-07-13T04:32:51;9.27;;;2.63;;
51985;SDS011;38002;53.296;6.600;2023-07-13T04:37:52;9.88;;;2.53;;
51985;SDS011;38002;53.296;6.600;2023-07-13T04:42:52;10.37;;;2.80;;
51985;SDS011;38002;53.296;6.600;2023-07-13T04:47:53;9.03;;;3.17;;
51985;SDS011;38002;53.296;6.600;2023-07-13T04:52:54;5.90;;;2.60;;
51985;SDS011;38002;53.296;6.600;2023-07-13T04:57:54;9.27;;;3.47;;
51985;SDS011;38002;53.296;6.600;2023-07-13T05:02:55;11.93;;;3.23;;
51985;SDS011;38002;53.296;6.600;2023-07-13T05:07:57;9.40;;;2.45;;
51985;SDS011;38002;53.296;6.600;2023-07-13T05:12:57;14.43;;;3.53;;
51985;SDS011;38002;53.296;6.600;2023-07-13T05:17:58;8.60;;;5.13;;
51985;SDS011;38002;53.296;6.600;2023-07-13T05:22:58;12.77;;;3.00;;
51985;SDS011;38002;53.296;6.600;2023-07-13T05:27:59;12.40;;;2.87;;
51985;SDS011;38002;53.296;6.600;2023-07-13T05:32:59;15.57;;;3.60;;
51985;SDS011;38002;53.296;6.600;2023-07-13T05:37:59;14.40;;;3.40;;
51985;SDS011;38002;53.296;6.600;2023-07-13T05:43:00;13.00;;;2.90;;
51985;SDS011;38002;53.296;6.600;2023-07-13T05:48:00;12.27;;;3.73;;
51985;SDS011;38002;53.296;6.600;2023-07-13T05:53:01;17.07;;;3.13;;
51985;SDS011;38002;53.296;6.600;2023-07-13T05:58:02;5.50;;;2.50;;
51985;SDS011;38002;53.296;6.600;2023-07-13T06:03:02;9.63;;;3.00;;
51985;SDS011;38002;53.296;6.600;2023-07-13T06:08:03;10.67;;;2.60;;
51985;SDS011;38002;53.296;6.600;2023-07-13T06:13:04;10.43;;;2.90;;
51985;SDS011;38002;53.296;6.600;2023-07-13T06:18:04;11.67;;;2.90;;
51985;SDS011;38002;53.296;6.600;2023-07-13T06:23:08;11.38;;;2.88;;
51985;SDS011;38002;53.296;6.600;2023-07-13T06:28:09;9.97;;;2.70;;
51985;SDS011;38002;53.296;6.600;2023-07-13T06:33:09;6.30;;;2.13;;
51985;SDS011;38002;53.296;6.600;2023-07-13T06:38:09;7.50;;;1.93;;
51985;SDS011;38002;53.296;6.600;2023-07-13T06:43:10;11.33;;;2.53;;
51985;SDS011;38002;53.296;6.600;2023-07-13T06:48:13;11.35;;;2.60;;
51985;SDS011;38002;53.296;6.600;2023-07-13T06:58:17;6.55;;;2.58;;
51985;SDS011;38002;53.296;6.600;2023-07-13T07:03:19;7.63;;;2.10;;
51985;SDS011;38002;53.296;6.600;2023-07-13T07:08:19;13.27;;;2.47;;
51985;SDS011;38002;53.296;6.600;2023-07-13T07:13:20;6.80;;;1.47;;
51985;SDS011;38002;53.296;6.600;2023-07-13T07:18:20;5.57;;;1.47;;
51985;SDS011;38002;53.296;6.600;2023-07-13T07:23:21;6.67;;;1.60;;
51985;SDS011;38002;53.296;6.600;2023-07-13T07:28:21;6.47;;;1.80;;
51985;SDS011;38002;53.296;6.600;2023-07-13T07:33:22;3.80;;;1.40;;
51985;SDS011;38002;53.296;6.600;2023-07-13T07:38:23;5.63;;;1.77;;
51985;SDS011;38002;53.296;6.600;2023-07-13T07:43:23;5.93;;;1.77;;
51985;SDS011;38002;53.296;6.600;2023-07-13T07:48:24;2.93;;;1.67;;
51985;SDS011;38002;53.296;6.600;2023-07-13T07:53:24;7.97;;;1.50;;
51985;SDS011;38002;53.296;6.600;2023-07-13T07:58:25;3.87;;;1.43;;
51985;SDS011;38002;53.296;6.600;2023-07-13T08:03:25;2.17;;;1.57;;
51985;SDS011;38002;53.296;6.600;2023-07-13T08:08:25;4.00;;;2.43;;
51985;SDS011;38002;53.296;6.600;2023-07-13T08:13:26;4.43;;;1.60;;
51985;SDS011;38002;53.296;6.600;2023-07-13T08:18:26;5.03;;;1.90;;
51985;SDS011;38002;53.296;6.600;2023-07-13T08:23:30;4.88;;;1.55;;
51985;SDS011;38002;53.296;6.600;2023-07-13T08:28:31;2.77;;;1.43;;
51985;SDS011;38002;53.296;6.600;2023-07-13T08:33:33;2.05;;;1.42;;
51985;SDS011;38002;53.296;6.600;2023-07-13T08:38:35;5.10;;;1.60;;
51985;SDS011;38002;53.296;6.600;2023-07-13T08:43:36;3.97;;;1.63;;
51985;SDS011;38002;53.296;6.600;2023-07-13T08:53:54;2.22;;;1.38;;
51985;SDS011;38002;53.296;6.600;2023-07-13T08:58:59;3.03;;;1.52;;
51985;SDS011;38002;53.296;6.600;2023-07-13T09:04:19;3.85;;;1.63;;
51985;SDS011;38002;53.296;6.600;2023-07-13T09:14:50;4.88;;;1.70;;
51985;SDS011;38002;53.296;6.600;2023-07-13T09:19:55;8.35;;;3.08;;
51985;SDS011;38002;53.296;6.600;2023-07-13T09:25:02;3.60;;;2.10;;
51985;SDS011;38002;53.296;6.600;2023-07-13T09:30:24;4.57;;;2.13;;
51985;SDS011;38002;53.296;6.600;2023-07-13T09:35:34;5.57;;;1.73;;
